sensor_id;sensor_type;location;lat;lon;timestamp;temperature;humidity
42245;DHT22;27912;51.828;5.688;2023-04-03T00:02:19;3.00;99.90
42245;DHT22;27912;51.828;5.688;2023-04-03T00:04:44;3.00;99.90
42245;DHT22;27912;51.828;5.688;2023-04-03T00:07:10;2.90;99.90
42245;DHT22;27912;51.828;5.688;2023-04-03T00:09:35;2.90;99.90
42245;DHT22;27912;51.828;5.688;2023-04-03T00:12:01;2.90;99.90
42245;DHT22;27912;51.828;5.688;2023-04-03T00:14:26;2.90;99.90
42245;DHT22;27912;51.828;5.688;2023-04-03T00:16:52;2.90;99.90
42245;DHT22;27912;51.828;5.688;2023-04-03T00:19:18;2.90;99.90
42245;DHT22;27912;51.828;5.688;2023-04-03T00:21:43;2.80;99.90
42245;DHT22;27912;51.828;5.688;2023-04-03T00:24:09;2.80;99.90
42245;DHT22;27912;51.828;5.688;2023-04-03T00:26:35;2.80;99.90
42245;DHT22;27912;51.828;5.688;2023-04-03T00:29:00;2.70;99.90
42245;DHT22;27912;51.828;5.688;2023-04-03T00:31:26;2.70;99.90
42245;DHT22;27912;51.828;5.688;2023-04-03T00:33:52;2.70;99.90
42245;DHT22;27912;51.828;5.688;2023-04-03T00:36:17;2.80;99.90
42245;DHT22;27912;51.828;5.688;2023-04-03T00:38:43;2.80;99.90
42245;DHT22;27912;51.828;5.688;2023-04-03T00:41:08;2.80;99.90
42245;DHT22;27912;51.828;5.688;2023-04-03T00:43:34;2.90;99.90
42245;DHT22;27912;51.828;5.688;2023-04-03T00:46:00;2.90;99.90
42245;DHT22;27912;51.828;5.688;2023-04-03T00:48:27;2.90;99.90
42245;DHT22;27912;51.828;5.688;2023-04-03T00:50:53;2.90;99.90
42245;DHT22;27912;51.828;5.688;2023-04-03T00:53:24;2.90;99.90
42245;DHT22;27912;51.828;5.688;2023-04-03T00:55:51;2.90;99.90
42245;DHT22;27912;51.828;5.688;2023-04-03T00:58:19;2.90;99.90
42245;DHT22;27912;51.828;5.688;2023-04-03T01:00:50;2.90;99.90
42245;DHT22;27912;51.828;5.688;2023-04-03T01:03:21;2.90;99.90
42245;DHT22;27912;51.828;5.688;2023-04-03T01:05:47;2.90;99.90
42245;DHT22;27912;51.828;5.688;2023-04-03T01:08:12;2.90;99.90
42245;DHT22;27912;51.828;5.688;2023-04-03T01:10:38;2.80;99.90
42245;DHT22;27912;51.828;5.688;2023-04-03T01:13:22;2.90;99.90
42245;DHT22;27912;51.828;5.688;2023-04-03T01:15:48;2.90;99.90
42245;DHT22;27912;51.828;5.688;2023-04-03T01:18:14;2.90;99.90
42245;DHT22;27912;51.828;5.688;2023-04-03T01:20:50;2.90;99.90
42245;DHT22;27912;51.828;5.688;2023-04-03T01:23:43;2.80;99.90
42245;DHT22;27912;51.828;5.688;2023-04-03T01:26:12;2.80;99.90
42245;DHT22;27912;51.828;5.688;2023-04-03T01:28:38;2.70;99.90
42245;DHT22;27912;51.828;5.688;2023-04-03T01:31:22;2.70;99.90
42245;DHT22;27912;51.828;5.688;2023-04-03T01:33:49;2.70;99.90
42245;DHT22;27912;51.828;5.688;2023-04-03T01:36:24;2.60;99.90
42245;DHT22;27912;51.828;5.688;2023-04-03T01:38:50;2.60;99.90
42245;DHT22;27912;51.828;5.688;2023-04-03T01:41:16;2.60;99.90
42245;DHT22;27912;51.828;5.688;2023-04-03T01:43:42;2.60;99.90
42245;DHT22;27912;51.828;5.688;2023-04-03T01:46:08;2.60;99.90
42245;DHT22;27912;51.828;5.688;2023-04-03T01:48:33;2.50;99.90
42245;DHT22;27912;51.828;5.688;2023-04-03T01:51:00;2.50;99.90
42245;DHT22;27912;51.828;5.688;2023-04-03T01:53:25;2.50;99.90
42245;DHT22;27912;51.828;5.688;2023-04-03T01:55:51;2.50;99.90
42245;DHT22;27912;51.828;5.688;2023-04-03T01:58:16;2.50;99.90
42245;DHT22;27912;51.828;5.688;2023-04-03T02:00:42;2.40;99.90
42245;DHT22;27912;51.828;5.688;2023-04-03T02:03:08;2.40;99.90
42245;DHT22;27912;51.828;5.688;2023-04-03T02:05:34;2.40;99.90
42245;DHT22;27912;51.828;5.688;2023-04-03T02:08:00;2.40;99.90
42245;DHT22;27912;51.828;5.688;2023-04-03T02:10:26;2.30;99.90
42245;DHT22;27912;51.828;5.688;2023-04-03T02:12:52;2.30;99.90
42245;DHT22;27912;51.828;5.688;2023-04-03T02:15:17;2.30;99.90
42245;DHT22;27912;51.828;5.688;2023-04-03T02:17:43;2.30;99.90
42245;DHT22;27912;51.828;5.688;2023-04-03T02:20:09;2.30;99.90
42245;DHT22;27912;51.828;5.688;2023-04-03T02:22:35;2.20;99.90
42245;DHT22;27912;51.828;5.688;2023-04-03T02:25:00;2.20;99.90
42245;DHT22;27912;51.828;5.688;2023-04-03T02:27:26;2.20;99.90
42245;DHT22;27912;51.828;5.688;2023-04-03T02:29:52;2.20;99.90
42245;DHT22;27912;51.828;5.688;2023-04-03T02:32:17;2.10;99.90
42245;DHT22;27912;51.828;5.688;2023-04-03T02:34:43;2.10;99.90
42245;DHT22;27912;51.828;5.688;2023-04-03T02:37:09;2.00;99.90
42245;DHT22;27912;51.828;5.688;2023-04-03T02:39:34;2.00;99.90
42245;DHT22;27912;51.828;5.688;2023-04-03T02:42:00;2.00;99.90
42245;DHT22;27912;51.828;5.688;2023-04-03T02:44:25;2.00;99.90
42245;DHT22;27912;51.828;5.688;2023-04-03T02:46:51;2.00;99.90
42245;DHT22;27912;51.828;5.688;2023-04-03T02:49:17;2.00;99.90
42245;DHT22;27912;51.828;5.688;2023-04-03T02:51:42;2.00;99.90
42245;DHT22;27912;51.828;5.688;2023-04-03T02:54:08;2.00;99.90
42245;DHT22;27912;51.828;5.688;2023-04-03T02:56:34;2.00;99.90
42245;DHT22;27912;51.828;5.688;2023-04-03T02:59:00;1.90;99.90
42245;DHT22;27912;51.828;5.688;2023-04-03T03:01:25;1.90;99.90
42245;DHT22;27912;51.828;5.688;2023-04-03T03:03:54;1.80;99.90
42245;DHT22;27912;51.828;5.688;2023-04-03T03:06:19;1.80;99.90
42245;DHT22;27912;51.828;5.688;2023-04-03T03:08:45;1.80;99.90
42245;DHT22;27912;51.828;5.688;2023-04-03T03:11:11;1.80;99.90
42245;DHT22;27912;51.828;5.688;2023-04-03T03:13:37;1.80;99.90
42245;DHT22;27912;51.828;5.688;2023-04-03T03:16:03;1.70;99.90
42245;DHT22;27912;51.828;5.688;2023-04-03T03:18:29;1.70;99.90
42245;DHT22;27912;51.828;5.688;2023-04-03T03:20:56;1.70;99.90
42245;DHT22;27912;51.828;5.688;2023-04-03T03:23:23;1.70;99.90
42245;DHT22;27912;51.828;5.688;2023-04-03T03:25:55;1.70;99.90
42245;DHT22;27912;51.828;5.688;2023-04-03T03:28:21;1.70;99.90
42245;DHT22;27912;51.828;5.688;2023-04-03T03:30:47;1.60;99.90
42245;DHT22;27912;51.828;5.688;2023-04-03T03:33:12;1.60;99.90
42245;DHT22;27912;51.828;5.688;2023-04-03T03:35:37;1.60;99.90
42245;DHT22;27912;51.828;5.688;2023-04-03T03:38:03;1.60;99.90
42245;DHT22;27912;51.828;5.688;2023-04-03T03:40:29;1.60;99.90
42245;DHT22;27912;51.828;5.688;2023-04-03T03:42:54;1.60;99.90
42245;DHT22;27912;51.828;5.688;2023-04-03T03:45:20;1.60;99.90
42245;DHT22;27912;51.828;5.688;2023-04-03T03:47:45;1.60;99.90
42245;DHT22;27912;51.828;5.688;2023-04-03T03:50:11;1.50;99.90
42245;DHT22;27912;51.828;5.688;2023-04-03T03:52:37;1.50;99.90
42245;DHT22;27912;51.828;5.688;2023-04-03T03:55:02;1.50;99.90
42245;DHT22;27912;51.828;5.688;2023-04-03T03:57:28;1.50;99.90
42245;DHT22;27912;51.828;5.688;2023-04-03T03:59:54;1.50;99.90
42245;DHT22;27912;51.828;5.688;2023-04-03T04:02:20;1.50;99.90
42245;DHT22;27912;51.828;5.688;2023-04-03T04:04:45;1.50;99.90
42245;DHT22;27912;51.828;5.688;2023-04-03T04:07:11;1.50;99.90
42245;DHT22;27912;51.828;5.688;2023-04-03T04:09:37;1.50;99.90
42245;DHT22;27912;51.828;5.688;2023-04-03T04:12:02;1.40;99.90
42245;DHT22;27912;51.828;5.688;2023-04-03T04:14:28;1.40;99.90
42245;DHT22;27912;51.828;5.688;2023-04-03T04:16:53;1.40;99.90
42245;DHT22;27912;51.828;5.688;2023-04-03T04:19:19;1.40;99.90
42245;DHT22;27912;51.828;5.688;2023-04-03T04:21:45;1.40;99.90
42245;DHT22;27912;51.828;5.688;2023-04-03T04:24:11;1.40;99.90
42245;DHT22;27912;51.828;5.688;2023-04-03T04:26:36;1.40;99.90
42245;DHT22;27912;51.828;5.688;2023-04-03T04:29:02;1.40;99.90
42245;DHT22;27912;51.828;5.688;2023-04-03T04:31:27;1.30;99.90
42245;DHT22;27912;51.828;5.688;2023-04-03T04:33:53;1.30;99.90
42245;DHT22;27912;51.828;5.688;2023-04-03T04:36:19;1.40;99.90
42245;DHT22;27912;51.828;5.688;2023-04-03T04:38:45;1.30;99.90
42245;DHT22;27912;51.828;5.688;2023-04-03T04:41:10;1.30;99.90
42245;DHT22;27912;51.828;5.688;2023-04-03T04:43:36;1.30;99.90
42245;DHT22;27912;51.828;5.688;2023-04-03T04:46:09;1.30;99.90
42245;DHT22;27912;51.828;5.688;2023-04-03T04:48:37;1.30;99.90
42245;DHT22;27912;51.828;5.688;2023-04-03T04:51:03;1.30;99.90
42245;DHT22;27912;51.828;5.688;2023-04-03T04:53:28;1.30;99.90
42245;DHT22;27912;51.828;5.688;2023-04-03T04:55:54;1.30;99.90
42245;DHT22;27912;51.828;5.688;2023-04-03T04:58:20;1.20;99.90
42245;DHT22;27912;51.828;5.688;2023-04-03T05:00:46;1.20;99.90
42245;DHT22;27912;51.828;5.688;2023-04-03T05:03:12;1.20;99.90
42245;DHT22;27912;51.828;5.688;2023-04-03T05:05:38;1.20;99.90
42245;DHT22;27912;51.828;5.688;2023-04-03T05:08:04;1.10;99.90
42245;DHT22;27912;51.828;5.688;2023-04-03T05:10:30;1.20;99.90
42245;DHT22;27912;51.828;5.688;2023-04-03T05:12:56;1.20;99.90
42245;DHT22;27912;51.828;5.688;2023-04-03T05:15:22;1.10;99.90
42245;DHT22;27912;51.828;5.688;2023-04-03T05:17:47;1.10;99.90
42245;DHT22;27912;51.828;5.688;2023-04-03T05:20:13;1.10;99.90
42245;DHT22;27912;51.828;5.688;2023-04-03T05:22:38;1.10;99.90
42245;DHT22;27912;51.828;5.688;2023-04-03T05:25:05;1.10;99.90
42245;DHT22;27912;51.828;5.688;2023-04-03T05:27:31;1.10;99.90
42245;DHT22;27912;51.828;5.688;2023-04-03T05:29:57;1.10;99.90
42245;DHT22;27912;51.828;5.688;2023-04-03T05:32:23;1.10;99.90
42245;DHT22;27912;51.828;5.688;2023-04-03T05:34:50;1.10;99.90
42245;DHT22;27912;51.828;5.688;2023-04-03T05:37:16;1.10;99.90
42245;DHT22;27912;51.828;5.688;2023-04-03T05:39:42;1.10;99.90
42245;DHT22;27912;51.828;5.688;2023-04-03T05:42:08;1.10;99.90
42245;DHT22;27912;51.828;5.688;2023-04-03T05:44:33;1.10;99.90
42245;DHT22;27912;51.828;5.688;2023-04-03T05:46:59;1.10;99.90
42245;DHT22;27912;51.828;5.688;2023-04-03T05:49:25;1.20;99.90
42245;DHT22;27912;51.828;5.688;2023-04-03T05:51:51;1.20;99.90
42245;DHT22;27912;51.828;5.688;2023-04-03T05:54:25;1.30;99.90
42245;DHT22;27912;51.828;5.688;2023-04-03T05:56:52;1.30;99.90
42245;DHT22;27912;51.828;5.688;2023-04-03T05:59:19;1.40;99.90
42245;DHT22;27912;51.828;5.688;2023-04-03T06:01:45;1.40;99.90
42245;DHT22;27912;51.828;5.688;2023-04-03T06:04:11;1.40;99.90
42245;DHT22;27912;51.828;5.688;2023-04-03T06:09:09;1.60;99.90
42245;DHT22;27912;51.828;5.688;2023-04-03T06:11:35;1.60;99.90
42245;DHT22;27912;51.828;5.688;2023-04-03T06:14:01;1.60;99.90
42245;DHT22;27912;51.828;5.688;2023-04-03T06:16:26;1.70;99.90
42245;DHT22;27912;51.828;5.688;2023-04-03T06:18:52;1.70;99.90
42245;DHT22;27912;51.828;5.688;2023-04-03T06:21:17;1.70;99.90
42245;DHT22;27912;51.828;5.688;2023-04-03T06:23:43;1.80;99.90
42245;DHT22;27912;51.828;5.688;2023-04-03T06:26:08;1.80;99.90
42245;DHT22;27912;51.828;5.688;2023-04-03T06:28:34;1.90;99.90
42245;DHT22;27912;51.828;5.688;2023-04-03T06:30:59;1.90;99.90
42245;DHT22;27912;51.828;5.688;2023-04-03T06:33:25;2.00;99.90
42245;DHT22;27912;51.828;5.688;2023-04-03T06:35:57;2.00;99.90
42245;DHT22;27912;51.828;5.688;2023-04-03T06:38:23;2.10;99.90
42245;DHT22;27912;51.828;5.688;2023-04-03T06:40:49;2.10;99.90
42245;DHT22;27912;51.828;5.688;2023-04-03T06:43:14;2.20;99.90
42245;DHT22;27912;51.828;5.688;2023-04-03T06:45:40;2.30;99.90
42245;DHT22;27912;51.828;5.688;2023-04-03T06:48:06;2.40;99.90
42245;DHT22;27912;51.828;5.688;2023-04-03T06:50:31;2.40;99.90
42245;DHT22;27912;51.828;5.688;2023-04-03T06:52:57;2.50;99.90
42245;DHT22;27912;51.828;5.688;2023-04-03T06:55:22;2.60;99.90
42245;DHT22;27912;51.828;5.688;2023-04-03T06:57:48;2.60;99.90
42245;DHT22;27912;51.828;5.688;2023-04-03T07:00:14;2.70;99.90
42245;DHT22;27912;51.828;5.688;2023-04-03T07:02:40;2.80;99.90
42245;DHT22;27912;51.828;5.688;2023-04-03T07:05:06;2.90;99.90
42245;DHT22;27912;51.828;5.688;2023-04-03T07:07:32;2.90;99.90
42245;DHT22;27912;51.828;5.688;2023-04-03T07:09:59;3.00;99.90
42245;DHT22;27912;51.828;5.688;2023-04-03T07:12:25;3.10;99.90
42245;DHT22;27912;51.828;5.688;2023-04-03T07:14:51;3.10;99.90
42245;DHT22;27912;51.828;5.688;2023-04-03T07:17:17;3.20;99.90
42245;DHT22;27912;51.828;5.688;2023-04-03T07:19:42;3.30;99.90
42245;DHT22;27912;51.828;5.688;2023-04-03T07:22:08;3.40;99.90
42245;DHT22;27912;51.828;5.688;2023-04-03T07:24:34;3.50;99.90
42245;DHT22;27912;51.828;5.688;2023-04-03T07:27:00;3.50;99.90
42245;DHT22;27912;51.828;5.688;2023-04-03T07:29:26;3.60;99.90
42245;DHT22;27912;51.828;5.688;2023-04-03T07:31:52;3.60;99.90
42245;DHT22;27912;51.828;5.688;2023-04-03T07:34:18;3.70;99.90
42245;DHT22;27912;51.828;5.688;2023-04-03T07:36:43;3.80;99.90
42245;DHT22;27912;51.828;5.688;2023-04-03T07:39:09;3.80;99.90
42245;DHT22;27912;51.828;5.688;2023-04-03T07:41:36;3.90;99.90
42245;DHT22;27912;51.828;5.688;2023-04-03T07:44:02;3.90;99.90
42245;DHT22;27912;51.828;5.688;2023-04-03T07:46:28;4.00;99.90
42245;DHT22;27912;51.828;5.688;2023-04-03T07:48:53;4.10;99.90
42245;DHT22;27912;51.828;5.688;2023-04-03T07:51:19;4.20;99.90
42245;DHT22;27912;51.828;5.688;2023-04-03T07:53:45;4.30;99.90
42245;DHT22;27912;51.828;5.688;2023-04-03T07:56:11;4.30;99.90
42245;DHT22;27912;51.828;5.688;2023-04-03T07:58:36;4.30;99.90
42245;DHT22;27912;51.828;5.688;2023-04-03T08:01:02;4.30;99.90
42245;DHT22;27912;51.828;5.688;2023-04-03T08:03:28;4.40;99.90
42245;DHT22;27912;51.828;5.688;2023-04-03T08:05:54;4.50;99.90
42245;DHT22;27912;51.828;5.688;2023-04-03T08:08:23;4.60;99.90
42245;DHT22;27912;51.828;5.688;2023-04-03T08:10:51;4.70;99.90
42245;DHT22;27912;51.828;5.688;2023-04-03T08:13:18;4.70;99.90
42245;DHT22;27912;51.828;5.688;2023-04-03T08:15:44;4.70;99.90
42245;DHT22;27912;51.828;5.688;2023-04-03T08:18:10;4.70;99.90
42245;DHT22;27912;51.828;5.688;2023-04-03T08:20:37;4.70;99.90
42245;DHT22;27912;51.828;5.688;2023-04-03T08:23:03;4.70;99.90
42245;DHT22;27912;51.828;5.688;2023-04-03T08:25:29;4.80;99.90
42245;DHT22;27912;51.828;5.688;2023-04-03T08:27:55;5.00;99.90
42245;DHT22;27912;51.828;5.688;2023-04-03T08:30:20;5.00;99.90
42245;DHT22;27912;51.828;5.688;2023-04-03T08:32:46;5.20;99.90
42245;DHT22;27912;51.828;5.688;2023-04-03T08:35:12;5.30;99.90
42245;DHT22;27912;51.828;5.688;2023-04-03T08:37:38;5.40;99.90
42245;DHT22;27912;51.828;5.688;2023-04-03T08:40:06;5.40;99.90
42245;DHT22;27912;51.828;5.688;2023-04-03T08:42:57;5.50;99.90
42245;DHT22;27912;51.828;5.688;2023-04-03T08:50:41;5.70;99.90
42245;DHT22;27912;51.828;5.688;2023-04-03T08:53:14;5.80;99.90
42245;DHT22;27912;51.828;5.688;2023-04-03T08:55:45;5.90;99.90
42245;DHT22;27912;51.828;5.688;2023-04-03T08:58:15;5.90;99.90
42245;DHT22;27912;51.828;5.688;2023-04-03T09:00:56;5.90;99.90
42245;DHT22;27912;51.828;5.688;2023-04-03T09:03:23;6.00;99.90
42245;DHT22;27912;51.828;5.688;2023-04-03T09:11:27;6.30;99.90
42245;DHT22;27912;51.828;5.688;2023-04-03T09:14:26;6.30;99.60
42245;DHT22;27912;51.828;5.688;2023-04-03T09:16:57;6.40;97.00
42245;DHT22;27912;51.828;5.688;2023-04-03T09:19:41;6.40;96.70
42245;DHT22;27912;51.828;5.688;2023-04-03T09:22:20;6.40;94.60
42245;DHT22;27912;51.828;5.688;2023-04-03T09:24:51;6.50;92.80
42245;DHT22;27912;51.828;5.688;2023-04-03T09:27:21;6.50;92.30
42245;DHT22;27912;51.828;5.688;2023-04-03T09:29:46;6.60;92.80
42245;DHT22;27912;51.828;5.688;2023-04-03T09:34:50;6.80;91.30
42245;DHT22;27912;51.828;5.688;2023-04-03T09:37:43;6.90;89.60
42245;DHT22;27912;51.828;5.688;2023-04-03T09:40:32;7.00;85.60
42245;DHT22;27912;51.828;5.688;2023-04-03T09:43:04;7.00;86.00
42245;DHT22;27912;51.828;5.688;2023-04-03T09:45:45;7.10;83.80
42245;DHT22;27912;51.828;5.688;2023-04-03T09:50:57;7.40;84.10
42245;DHT22;27912;51.828;5.688;2023-04-03T09:53:36;7.40;78.00
42245;DHT22;27912;51.828;5.688;2023-04-03T10:01:34;7.40;70.80
42245;DHT22;27912;51.828;5.688;2023-04-03T10:04:16;7.40;64.80
42245;DHT22;27912;51.828;5.688;2023-04-03T10:06:55;7.50;65.90
42245;DHT22;27912;51.828;5.688;2023-04-03T10:09:32;7.60;65.00
42245;DHT22;27912;51.828;5.688;2023-04-03T10:12:09;7.70;65.30
42245;DHT22;27912;51.828;5.688;2023-04-03T10:14:55;7.80;64.50
42245;DHT22;27912;51.828;5.688;2023-04-03T10:22:37;7.90;62.70
42245;DHT22;27912;51.828;5.688;2023-04-03T10:30:47;8.10;63.70
42245;DHT22;27912;51.828;5.688;2023-04-03T10:36:38;8.10;59.20
42245;DHT22;27912;51.828;5.688;2023-04-03T10:39:28;8.00;59.50
42245;DHT22;27912;51.828;5.688;2023-04-03T10:48:04;8.10;57.70
42245;DHT22;27912;51.828;5.688;2023-04-03T10:50:52;8.10;59.40
42245;DHT22;27912;51.828;5.688;2023-04-03T10:59:25;8.30;58.30
42245;DHT22;27912;51.828;5.688;2023-04-03T11:02:22;8.20;58.40
42245;DHT22;27912;51.828;5.688;2023-04-03T11:04:46;8.30;58.40
42245;DHT22;27912;51.828;5.688;2023-04-03T11:07:25;8.30;57.00
42245;DHT22;27912;51.828;5.688;2023-04-03T11:10:02;8.20;58.20
42245;DHT22;27912;51.828;5.688;2023-04-03T11:12:40;8.20;57.90
42245;DHT22;27912;51.828;5.688;2023-04-03T11:15:16;8.30;58.10
42245;DHT22;27912;51.828;5.688;2023-04-03T11:17:54;8.30;58.70
42245;DHT22;27912;51.828;5.688;2023-04-03T11:22:56;8.50;57.30
42245;DHT22;27912;51.828;5.688;2023-04-03T11:25:25;8.40;58.00
42245;DHT22;27912;51.828;5.688;2023-04-03T11:27:59;8.40;58.50
42245;DHT22;27912;51.828;5.688;2023-04-03T11:30:28;8.50;58.80
42245;DHT22;27912;51.828;5.688;2023-04-03T11:35:44;8.60;58.80
42245;DHT22;27912;51.828;5.688;2023-04-03T11:38:19;8.60;59.10
42245;DHT22;27912;51.828;5.688;2023-04-03T11:40:47;8.70;59.90
42245;DHT22;27912;51.828;5.688;2023-04-03T11:43:28;8.80;60.30
42245;DHT22;27912;51.828;5.688;2023-04-03T11:45:57;8.80;59.20
42245;DHT22;27912;51.828;5.688;2023-04-03T11:51:02;8.80;58.80
42245;DHT22;27912;51.828;5.688;2023-04-03T11:53:46;8.90;59.10
42245;DHT22;27912;51.828;5.688;2023-04-03T11:56:28;8.90;58.60
42245;DHT22;27912;51.828;5.688;2023-04-03T11:59:25;8.90;58.60
42245;DHT22;27912;51.828;5.688;2023-04-03T12:01:56;8.80;58.10
42245;DHT22;27912;51.828;5.688;2023-04-03T12:04:25;8.90;58.30
42245;DHT22;27912;51.828;5.688;2023-04-03T12:07:33;8.90;59.60
42245;DHT22;27912;51.828;5.688;2023-04-03T12:14:48;9.10;58.80
42245;DHT22;27912;51.828;5.688;2023-04-03T12:17:23;9.10;58.60
42245;DHT22;27912;51.828;5.688;2023-04-03T12:19:51;9.10;58.90
42245;DHT22;27912;51.828;5.688;2023-04-03T12:22:18;9.10;59.70
42245;DHT22;27912;51.828;5.688;2023-04-03T12:24:48;9.20;60.70
42245;DHT22;27912;51.828;5.688;2023-04-03T12:27:20;9.40;60.50
42245;DHT22;27912;51.828;5.688;2023-04-03T12:29:50;9.40;59.50
42245;DHT22;27912;51.828;5.688;2023-04-03T12:32:54;9.40;59.30
42245;DHT22;27912;51.828;5.688;2023-04-03T12:35:29;9.50;60.10
42245;DHT22;27912;51.828;5.688;2023-04-03T12:38:18;9.50;58.80
42245;DHT22;27912;51.828;5.688;2023-04-03T12:40:57;9.50;58.80
42245;DHT22;27912;51.828;5.688;2023-04-03T12:43:48;9.40;58.80
42245;DHT22;27912;51.828;5.688;2023-04-03T12:46:18;9.40;58.80
42245;DHT22;27912;51.828;5.688;2023-04-03T12:48:53;9.50;58.00
42245;DHT22;27912;51.828;5.688;2023-04-03T12:54:13;9.50;59.30
42245;DHT22;27912;51.828;5.688;2023-04-03T12:56:40;9.60;59.10
42245;DHT22;27912;51.828;5.688;2023-04-03T12:59:26;9.60;59.70
42245;DHT22;27912;51.828;5.688;2023-04-03T13:01:57;9.60;59.90
42245;DHT22;27912;51.828;5.688;2023-04-03T13:04:23;9.60;59.80
42245;DHT22;27912;51.828;5.688;2023-04-03T13:06:49;9.70;60.20
42245;DHT22;27912;51.828;5.688;2023-04-03T13:09:21;9.80;59.00
42245;DHT22;27912;51.828;5.688;2023-04-03T13:11:56;9.80;58.60
42245;DHT22;27912;51.828;5.688;2023-04-03T13:14:25;9.70;59.20
42245;DHT22;27912;51.828;5.688;2023-04-03T13:19:20;9.70;59.80
42245;DHT22;27912;51.828;5.688;2023-04-03T13:21:45;9.80;60.10
42245;DHT22;27912;51.828;5.688;2023-04-03T13:24:12;9.80;59.40
42245;DHT22;27912;51.828;5.688;2023-04-03T13:26:38;9.90;59.70
42245;DHT22;27912;51.828;5.688;2023-04-03T13:29:20;10.00;60.10
42245;DHT22;27912;51.828;5.688;2023-04-03T13:31:46;10.00;58.70
42245;DHT22;27912;51.828;5.688;2023-04-03T13:34:13;9.80;58.50
42245;DHT22;27912;51.828;5.688;2023-04-03T13:36:56;9.90;59.00
42245;DHT22;27912;51.828;5.688;2023-04-03T13:39:27;10.00;60.00
42245;DHT22;27912;51.828;5.688;2023-04-03T13:41:59;10.00;60.00
42245;DHT22;27912;51.828;5.688;2023-04-03T13:44:36;10.00;58.40
42245;DHT22;27912;51.828;5.688;2023-04-03T13:49:57;9.90;58.90
42245;DHT22;27912;51.828;5.688;2023-04-03T13:52:28;9.90;58.50
42245;DHT22;27912;51.828;5.688;2023-04-03T13:55:01;9.90;59.10
42245;DHT22;27912;51.828;5.688;2023-04-03T13:57:28;10.00;59.00
42245;DHT22;27912;51.828;5.688;2023-04-03T13:59:54;10.10;59.60
42245;DHT22;27912;51.828;5.688;2023-04-03T14:02:33;10.20;58.60
42245;DHT22;27912;51.828;5.688;2023-04-03T14:05:00;10.30;60.00
42245;DHT22;27912;51.828;5.688;2023-04-03T14:07:28;10.40;59.60
42245;DHT22;27912;51.828;5.688;2023-04-03T14:09:54;10.40;60.10
42245;DHT22;27912;51.828;5.688;2023-04-03T14:12:36;10.40;59.50
42245;DHT22;27912;51.828;5.688;2023-04-03T14:15:15;10.50;59.90
42245;DHT22;27912;51.828;5.688;2023-04-03T14:17:41;10.60;59.20
42245;DHT22;27912;51.828;5.688;2023-04-03T14:20:15;10.50;59.10
42245;DHT22;27912;51.828;5.688;2023-04-03T14:22:40;10.50;59.60
42245;DHT22;27912;51.828;5.688;2023-04-03T14:25:06;10.50;57.90
42245;DHT22;27912;51.828;5.688;2023-04-03T14:27:38;10.50;58.80
42245;DHT22;27912;51.828;5.688;2023-04-03T14:30:08;10.60;59.50
42245;DHT22;27912;51.828;5.688;2023-04-03T14:32:34;10.70;58.60
42245;DHT22;27912;51.828;5.688;2023-04-03T14:35:00;10.70;58.30
42245;DHT22;27912;51.828;5.688;2023-04-03T14:37:28;10.70;59.10
42245;DHT22;27912;51.828;5.688;2023-04-03T14:39:55;10.70;59.70
42245;DHT22;27912;51.828;5.688;2023-04-03T14:42:35;10.80;60.00
42245;DHT22;27912;51.828;5.688;2023-04-03T14:45:02;11.00;60.40
42245;DHT22;27912;51.828;5.688;2023-04-03T14:47:29;11.10;59.70
42245;DHT22;27912;51.828;5.688;2023-04-03T14:49:55;11.10;58.90
42245;DHT22;27912;51.828;5.688;2023-04-03T14:52:33;10.90;59.00
42245;DHT22;27912;51.828;5.688;2023-04-03T14:55:00;10.80;58.30
42245;DHT22;27912;51.828;5.688;2023-04-03T14:57:29;10.70;58.90
42245;DHT22;27912;51.828;5.688;2023-04-03T14:59:54;10.70;59.20
42245;DHT22;27912;51.828;5.688;2023-04-03T15:02:36;10.70;58.80
42245;DHT22;27912;51.828;5.688;2023-04-03T15:05:04;10.60;58.90
42245;DHT22;27912;51.828;5.688;2023-04-03T15:07:34;10.50;59.10
42245;DHT22;27912;51.828;5.688;2023-04-03T15:10:26;10.40;58.50
42245;DHT22;27912;51.828;5.688;2023-04-03T15:12:52;10.30;59.50
42245;DHT22;27912;51.828;5.688;2023-04-03T15:15:19;10.30;59.90
42245;DHT22;27912;51.828;5.688;2023-04-03T15:17:46;10.30;60.00
42245;DHT22;27912;51.828;5.688;2023-04-03T15:20:21;10.30;60.90
42245;DHT22;27912;51.828;5.688;2023-04-03T15:22:47;10.40;61.00
42245;DHT22;27912;51.828;5.688;2023-04-03T15:25:13;10.40;60.70
42245;DHT22;27912;51.828;5.688;2023-04-03T15:27:39;10.40;60.40
42245;DHT22;27912;51.828;5.688;2023-04-03T15:30:08;10.30;59.60
42245;DHT22;27912;51.828;5.688;2023-04-03T15:32:33;10.30;60.00
42245;DHT22;27912;51.828;5.688;2023-04-03T15:35:00;10.30;59.80
42245;DHT22;27912;51.828;5.688;2023-04-03T15:37:26;10.40;60.30
42245;DHT22;27912;51.828;5.688;2023-04-03T15:39:52;10.30;60.20
42245;DHT22;27912;51.828;5.688;2023-04-03T15:42:18;10.40;60.60
42245;DHT22;27912;51.828;5.688;2023-04-03T15:44:43;10.40;60.20
42245;DHT22;27912;51.828;5.688;2023-04-03T15:47:09;10.30;59.00
42245;DHT22;27912;51.828;5.688;2023-04-03T15:49:35;10.20;59.40
42245;DHT22;27912;51.828;5.688;2023-04-03T15:52:00;10.20;59.50
42245;DHT22;27912;51.828;5.688;2023-04-03T15:54:26;10.10;59.90
42245;DHT22;27912;51.828;5.688;2023-04-03T15:56:53;10.00;60.30
42245;DHT22;27912;51.828;5.688;2023-04-03T15:59:18;10.00;61.10
42245;DHT22;27912;51.828;5.688;2023-04-03T16:01:44;10.00;61.30
42245;DHT22;27912;51.828;5.688;2023-04-03T16:04:10;9.80;61.50
42245;DHT22;27912;51.828;5.688;2023-04-03T16:06:36;9.80;62.30
42245;DHT22;27912;51.828;5.688;2023-04-03T16:09:03;9.80;63.20
42245;DHT22;27912;51.828;5.688;2023-04-03T16:11:29;9.80;63.60
42245;DHT22;27912;51.828;5.688;2023-04-03T16:13:55;9.70;63.60
42245;DHT22;27912;51.828;5.688;2023-04-03T16:16:22;9.60;64.10
42245;DHT22;27912;51.828;5.688;2023-04-03T16:18:48;9.50;64.40
42245;DHT22;27912;51.828;5.688;2023-04-03T16:21:15;9.50;64.90
42245;DHT22;27912;51.828;5.688;2023-04-03T16:23:42;9.40;65.30
42245;DHT22;27912;51.828;5.688;2023-04-03T16:26:08;9.40;66.10
42245;DHT22;27912;51.828;5.688;2023-04-03T16:28:34;9.40;66.00
42245;DHT22;27912;51.828;5.688;2023-04-03T16:31:00;9.30;66.10
42245;DHT22;27912;51.828;5.688;2023-04-03T16:33:26;9.20;66.70
42245;DHT22;27912;51.828;5.688;2023-04-03T16:35:52;9.20;66.70
42245;DHT22;27912;51.828;5.688;2023-04-03T16:38:18;9.20;66.00
42245;DHT22;27912;51.828;5.688;2023-04-03T16:40:47;9.10;65.90
42245;DHT22;27912;51.828;5.688;2023-04-03T16:43:14;9.00;66.00
42245;DHT22;27912;51.828;5.688;2023-04-03T16:45:40;8.90;66.70
42245;DHT22;27912;51.828;5.688;2023-04-03T16:48:06;8.90;67.30
42245;DHT22;27912;51.828;5.688;2023-04-03T16:50:31;8.90;67.30
42245;DHT22;27912;51.828;5.688;2023-04-03T16:52:57;8.80;67.80
42245;DHT22;27912;51.828;5.688;2023-04-03T16:55:23;8.80;67.80
42245;DHT22;27912;51.828;5.688;2023-04-03T16:57:48;8.80;68.30
42245;DHT22;27912;51.828;5.688;2023-04-03T17:00:14;8.90;69.00
42245;DHT22;27912;51.828;5.688;2023-04-03T17:02:40;8.90;67.70
42245;DHT22;27912;51.828;5.688;2023-04-03T17:05:06;9.00;67.50
42245;DHT22;27912;51.828;5.688;2023-04-03T17:07:32;9.10;67.60